createdAt,value
2023-05-16T00:00:41.938Z,22.90
2023-05-16T00:05:43.233Z,21.45
2023-05-16T00:10:44.622Z,22.77
2023-05-16T00:15:46.012Z,23.40
2023-05-16T00:20:48.241Z,21.88
2023-05-16T00:25:49.673Z,23.58
2023-05-16T00:30:51.013Z,21.13
2023-05-16T00:35:53.657Z,21.27
2023-05-16T00:40:55.014Z,20.08
2023-05-16T00:45:57.921Z,19.50
2023-05-16T00:51:00.367Z,19.73
2023-05-16T00:56:01.995Z,18.42
2023-05-16T01:01:07.988Z,19.60
2023-05-16T01:06:09.613Z,19.17
2023-05-16T01:11:31.039Z,18.27
2023-05-16T01:16:59.671Z,19.00
2023-05-16T01:22:34.275Z,17.58
2023-05-16T01:32:37.225Z,16.17
2023-05-16T01:37:48.692Z,18.88
2023-05-16T01:42:54.705Z,16.50
2023-05-16T01:48:06.030Z,18.75
2023-05-16T01:53:12.005Z,17.50
2023-05-16T01:58:19.036Z,14.82
2023-05-16T02:03:20.372Z,14.82
2023-05-16T02:08:21.846Z,14.85
2023-05-16T02:13:23.212Z,14.68
2023-05-16T02:18:24.657Z,17.00
2023-05-16T02:23:25.933Z,18.40
2023-05-16T02:28:27.251Z,18.90
2023-05-16T02:33:29.022Z,18.92
2023-05-16T02:38:30.404Z,17.45
2023-05-16T02:43:32.015Z,18.88
2023-05-16T02:48:33.350Z,17.65
2023-05-16T02:53:34.659Z,16.63
2023-05-16T02:58:36.059Z,18.20
2023-05-16T03:03:37.713Z,19.05
2023-05-16T03:08:39.299Z,16.92
2023-05-16T03:13:41.564Z,18.23
2023-05-16T03:18:43.226Z,20.38
2023-05-16T03:23:44.588Z,17.77
2023-05-16T03:28:45.959Z,19.85
2023-05-16T03:33:47.259Z,18.77
2023-05-16T03:38:48.732Z,17.30
2023-05-16T03:43:50.135Z,18.27
2023-05-16T03:48:51.614Z,18.60
2023-05-16T03:53:52.875Z,20.63
2023-05-16T03:58:54.336Z,19.90
2023-05-16T04:03:55.612Z,20.13
2023-05-16T04:08:56.932Z,20.17
2023-05-16T04:13:59.524Z,17.38
2023-05-16T04:19:01.180Z,17.30
2023-05-16T04:24:02.607Z,16.38
2023-05-16T04:29:03.972Z,17.90
2023-05-16T04:34:05.874Z,14.95
2023-05-16T04:39:08.694Z,16.75
2023-05-16T04:44:11.230Z,15.35
2023-05-16T04:49:12.828Z,14.27
2023-05-16T04:54:14.578Z,9.80
2023-05-16T04:59:15.955Z,8.77
2023-05-16T05:04:17.719Z,10.55
2023-05-16T05:09:19.228Z,7.28
2023-05-16T05:14:21.604Z,6.55
2023-05-16T05:19:23.189Z,6.85
2023-05-16T05:24:24.529Z,6.55
2023-05-16T05:29:26.158Z,4.85
2023-05-16T05:34:27.424Z,3.45
2023-05-16T05:39:28.746Z,6.47
2023-05-16T05:44:30.690Z,3.70
2023-05-16T05:49:32.586Z,4.55
2023-05-16T05:54:33.967Z,4.47
2023-05-16T05:59:35.574Z,2.65
2023-05-16T06:04:36.954Z,0.98
2023-05-16T06:09:38.451Z,1.10
2023-05-16T06:14:39.935Z,1.00
2023-05-16T06:19:41.432Z,3.50
2023-05-16T06:24:42.998Z,2.38
2023-05-16T06:29:44.366Z,6.13
2023-05-16T06:34:45.678Z,3.22
2023-05-16T06:39:47.133Z,2.78
2023-05-16T06:44:48.589Z,2.85
2023-05-16T06:49:50.862Z,3.25
2023-05-16T06:54:52.708Z,2.50
2023-05-16T06:59:54.145Z,2.35
2023-05-16T07:04:55.678Z,3.00
2023-05-16T07:09:56.997Z,4.28
2023-05-16T07:14:58.413Z,2.88
2023-05-16T07:20:01.825Z,2.08
2023-05-16T07:25:05.799Z,2.00
2023-05-16T07:30:09.785Z,1.63
2023-05-16T07:35:11.373Z,0.98
2023-05-16T07:40:13.201Z,0.60
2023-05-16T07:45:14.850Z,0.25
2023-05-16T07:50:16.361Z,0.80
2023-05-16T07:55:17.818Z,1.77
2023-05-16T08:00:20.152Z,0.88
2023-05-16T08:05:21.824Z,0.75
2023-05-16T08:10:26.321Z,0.50
2023-05-16T08:15:28.618Z,0.85
2023-05-16T08:20:30.508Z,1.77
2023-05-16T08:25:32.063Z,1.17
2023-05-16T08:30:33.563Z,0.82
2023-05-16T08:35:35.513Z,2.85
2023-05-16T08:40:36.933Z,2.67
2023-05-16T08:45:40.152Z,1.65
2023-05-16T08:50:42.906Z,2.03
2023-05-16T08:55:45.609Z,2.70
2023-05-16T09:00:47.965Z,1.23
2023-05-16T09:05:50.004Z,1.77
2023-05-16T09:10:51.325Z,3.65
2023-05-16T09:16:13.069Z,2.60
2023-05-16T09:21:15.766Z,1.30
2023-05-16T09:26:18.776Z,3.17
2023-05-16T09:31:26.685Z,3.95
2023-05-16T09:36:28.311Z,2.53
2023-05-16T09:41:34.162Z,2.28
2023-05-16T09:46:37.527Z,5.25
2023-05-16T09:51:41.259Z,2.10
2023-05-16T09:56:50.859Z,2.17
2023-05-16T10:01:53.123Z,2.72
2023-05-16T10:06:58.989Z,2.95
2023-05-16T10:12:07.077Z,3.17
2023-05-16T10:17:12.616Z,1.90
2023-05-16T10:22:16.515Z,2.70
2023-05-16T10:27:19.432Z,3.83
2023-05-16T10:32:23.364Z,3.83
2023-05-16T10:37:25.625Z,4.22
2023-05-16T10:42:27.024Z,4.78
2023-05-16T10:47:28.467Z,2.42
2023-05-16T10:52:35.456Z,5.55
2023-05-16T10:57:37.006Z,6.97
2023-05-16T11:02:41.785Z,9.00
2023-05-16T11:07:43.948Z,4.50
2023-05-16T11:12:48.534Z,5.63
2023-05-16T11:18:03.290Z,2.15
2023-05-16T11:23:17.397Z,2.97
2023-05-16T11:28:22.557Z,2.28
2023-05-16T11:33:25.052Z,2.55
2023-05-16T11:38:27.843Z,3.72
2023-05-16T11:43:29.242Z,3.35
2023-05-16T11:48:36.255Z,3.53
2023-05-16T11:53:38.560Z,3.22
2023-05-16T11:58:40.073Z,3.40
2023-05-16T12:03:41.968Z,3.38
2023-05-16T12:08:50.607Z,2.65
2023-05-16T12:13:52.667Z,2.65
2023-05-16T12:18:54.312Z,4.60
2023-05-16T12:23:58.368Z,8.32
2023-05-16T12:34:04.667Z,2.72
2023-05-16T12:39:06.049Z,3.55
2023-05-16T12:44:13.204Z,1.73
2023-05-16T12:49:14.837Z,5.43
2023-05-16T12:54:16.782Z,3.03
2023-05-16T12:59:19.905Z,2.75
2023-05-16T13:04:22.935Z,3.87
2023-05-16T13:09:24.419Z,3.73
2023-05-16T13:14:25.750Z,1.83
2023-05-16T13:19:27.306Z,8.68
2023-05-16T13:24:28.976Z,3.05
2023-05-16T13:29:30.707Z,2.40
2023-05-16T13:34:32.193Z,3.03
2023-05-16T13:39:33.579Z,6.32
2023-05-16T13:44:34.946Z,5.00
2023-05-16T13:49:36.357Z,1.58
2023-05-16T13:54:39.585Z,2.03
2023-05-16T14:04:46.726Z,2.42
2023-05-16T14:09:49.108Z,1.73
2023-05-16T14:14:50.516Z,3.67
2023-05-16T14:19:52.571Z,3.08
2023-05-16T14:24:53.896Z,3.05
2023-05-16T14:29:56.009Z,1.90
2023-05-16T14:34:57.369Z,3.15
2023-05-16T14:39:59.629Z,4.47
2023-05-16T14:45:01.440Z,4.55
2023-05-16T14:50:02.892Z,2.80
2023-05-16T14:55:04.965Z,1.92
2023-05-16T15:00:07.457Z,2.92
2023-05-16T15:05:09.823Z,1.65
2023-05-16T15:10:11.697Z,3.70
2023-05-16T15:15:14.938Z,2.50
2023-05-16T15:20:18.721Z,2.53
2023-05-16T15:25:21.849Z,2.75
2023-05-16T15:30:23.437Z,3.65
2023-05-16T15:35:24.954Z,3.28
2023-05-16T15:40:27.273Z,3.85
2023-05-16T15:45:29.191Z,4.30
2023-05-16T15:50:31.109Z,2.33
2023-05-16T15:55:32.486Z,4.80
2023-05-16T16:00:33.950Z,2.13
2023-05-16T16:05:35.678Z,2.97
2023-05-16T16:10:37.008Z,2.78
2023-05-16T16:15:39.331Z,2.67
2023-05-16T16:20:40.869Z,2.67
2023-05-16T16:25:42.332Z,2.25
2023-05-16T16:30:44.806Z,1.80
2023-05-16T16:35:46.279Z,1.52
2023-05-16T16:40:47.604Z,1.50
2023-05-16T16:45:49.576Z,1.52
2023-05-16T16:50:52.113Z,2.45
2023-05-16T16:55:53.465Z,3.63
2023-05-16T17:00:54.789Z,2.05
2023-05-16T17:05:56.220Z,4.05
2023-05-16T17:10:59.760Z,4.82
2023-05-16T17:16:01.450Z,2.92
2023-05-16T17:21:02.945Z,1.40
2023-05-16T17:26:04.404Z,2.75
2023-05-16T17:31:05.831Z,1.95
2023-05-16T17:36:07.856Z,2.53
2023-05-16T17:41:09.234Z,2.08
2023-05-16T17:46:10.847Z,2.35
2023-05-16T17:51:12.224Z,2.53
2023-05-16T17:56:14.059Z,3.55
2023-05-16T18:01:15.480Z,2.55
2023-05-16T18:06:17.004Z,1.42
2023-05-16T18:11:18.654Z,1.50
2023-05-16T18:16:20.287Z,2.70
2023-05-16T18:21:21.689Z,1.90
2023-05-16T18:26:23.148Z,1.92
2023-05-16T18:31:24.810Z,2.35
2023-05-16T18:36:26.213Z,3.40
2023-05-16T18:41:27.700Z,1.42
2023-05-16T18:46:29.089Z,3.50
2023-05-16T18:51:30.700Z,3.10
2023-05-16T18:56:32.348Z,4.25
2023-05-16T19:01:34.269Z,2.90
2023-05-16T19:06:35.601Z,2.20
2023-05-16T19:11:37.412Z,1.83
2023-05-16T19:16:38.747Z,4.85
2023-05-16T19:21:40.062Z,1.08
2023-05-16T19:26:41.558Z,2.45
2023-05-16T19:31:42.927Z,2.67
2023-05-16T19:36:44.389Z,5.15
2023-05-16T19:41:47.747Z,3.80
2023-05-16T19:46:54.203Z,1.55
2023-05-16T19:51:55.723Z,2.00
2023-05-16T19:56:57.044Z,1.65
2023-05-16T20:01:59.684Z,5.00
2023-05-16T20:07:01.243Z,3.53
2023-05-16T20:12:03.278Z,2.55
2023-05-16T20:17:04.674Z,2.47
2023-05-16T20:22:05.993Z,2.90
2023-05-16T20:27:07.366Z,3.65
2023-05-16T20:32:08.873Z,3.28
2023-05-16T20:37:10.264Z,2.28
2023-05-16T20:42:11.860Z,2.63
2023-05-16T20:47:13.989Z,2.83
2023-05-16T20:52:15.447Z,2.17
2023-05-16T20:57:17.656Z,1.80
2023-05-16T21:02:19.032Z,2.30
2023-05-16T21:07:21.430Z,1.42
2023-05-16T21:12:22.802Z,3.80
2023-05-16T21:17:24.144Z,2.30
2023-05-16T21:22:25.538Z,2.80
2023-05-16T21:27:27.473Z,4.80
2023-05-16T21:32:32.204Z,3.78
2023-05-16T21:37:33.876Z,5.47
2023-05-16T21:42:36.217Z,3.28
2023-05-16T21:47:37.577Z,2.28
2023-05-16T21:52:39.784Z,3.80
2023-05-16T21:57:41.237Z,2.85
2023-05-16T22:02:42.785Z,3.90
2023-05-16T22:07:44.282Z,2.72
2023-05-16T22:12:45.668Z,3.53
2023-05-16T22:17:48.576Z,3.03
2023-05-16T22:22:50.887Z,3.63
2023-05-16T22:27:52.330Z,4.75
2023-05-16T22:32:54.600Z,4.05
2023-05-16T22:37:56.018Z,3.92
2023-05-16T22:42:57.454Z,3.65
2023-05-16T22:47:58.914Z,1.98
2023-05-16T22:53:00.309Z,5.95
2023-05-16T22:58:01.833Z,2.05
2023-05-16T23:03:03.329Z,3.10
2023-05-16T23:08:05.188Z,3.08
2023-05-16T23:13:06.561Z,2.85
2023-05-16T23:18:08.100Z,1.60
2023-05-16T23:23:09.568Z,2.42
2023-05-16T23:28:10.962Z,3.03
2023-05-16T23:33:14.105Z,3.38
2023-05-16T23:38:15.822Z,2.67
2023-05-16T23:43:17.200Z,4.20
2023-05-16T23:48:18.673Z,5.93
2023-05-16T23:53:21.051Z,2.70
2023-05-16T23:58:22.455Z,3.92
